Time;durP1;ratioP1;P1;durP2;ratioP2;P2;SDS_P1;SDS_P2;PMS_P1;PMS_P2;Temp;Humidity;BMP_temperature;BMP_pressure;BME280_temperature;BME280_humidity;BME280_pressure;Samples;Min_cycle;Max_cycle;Signal;HPM_P1;HPM_P2
2021/11/07 00:10:03;;;;;;;19.42;14.18;;;;;;;15.26;70.06;102330.25;5040033;27;102246;-48
2021/11/07 00:12:38;;;;;;;18.45;14.20;;;;;;;15.26;69.85;102335.75;5041990;27;108036;-46
2021/11/07 00:15:06;;;;;;;19.15;14.57;;;;;;;15.27;69.93;102331.09;5055782;27;102120;-47
2021/11/07 00:17:34;;;;;;;19.67;13.88;;;;;;;15.25;69.73;102336.81;5052563;27;102411;-49
2021/11/07 00:20:17;;;;;;;16.90;13.23;;;;;;;15.26;69.86;102343.97;5039239;27;102268;-46
2021/11/07 00:27:51;;;;;;;16.42;12.88;;;;;;;15.27;69.41;102342.88;5047938;27;102166;-46
2021/11/07 00:30:27;;;;;;;16.20;13.02;;;;;;;15.27;69.61;102344.78;5037646;27;102196;-48
2021/11/07 00:38:14;;;;;;;15.85;12.07;;;;;;;15.27;69.53;102334.66;5053023;27;102335;-47
2021/11/07 00:40:57;;;;;;;16.13;11.65;;;;;;;15.26;69.62;102343.16;5055712;27;102188;-47
2021/11/07 00:43:34;;;;;;;15.52;11.90;;;;;;;15.27;69.66;102342.06;5050240;27;103914;-45
2021/11/07 00:46:15;;;;;;;15.02;11.98;;;;;;;15.27;69.52;102333.81;5046184;27;103995;-45
2021/11/07 00:48:54;;;;;;;16.15;13.00;;;;;;;15.27;69.85;102340.13;5047436;27;102515;-45
2021/11/07 00:51:30;;;;;;;16.88;12.25;;;;;;;15.27;69.50;102331.09;5054469;27;102295;-46
2021/11/07 01:01:30;;;;;;;17.02;12.52;;;;;;;15.28;69.89;102335.47;5057734;27;102274;-47
2021/11/07 01:04:00;;;;;;;14.65;12.23;;;;;;;15.27;69.81;102325.59;5052756;27;103911;-46
2021/11/07 01:06:27;;;;;;;15.10;12.40;;;;;;;15.27;69.83;102318.19;5056529;27;103172;-47
2021/11/07 01:08:53;;;;;;;14.80;11.52;;;;;;;15.28;69.67;102329.97;5057088;27;102129;-45
2021/11/07 01:11:20;;;;;;;14.45;11.75;;;;;;;15.28;69.61;102313.53;5058492;27;105549;-46
2021/11/07 01:13:46;;;;;;;14.48;11.65;;;;;;;15.27;69.55;102309.97;5058744;27;103853;-46
2021/11/07 01:16:16;;;;;;;14.77;11.85;;;;;;;15.27;69.99;102315.44;5046542;27;102293;-45
2021/11/07 01:18:44;;;;;;;15.32;11.82;;;;;;;15.28;70.02;102302.56;5057042;27;102114;-46
2021/11/07 01:21:13;;;;;;;14.30;11.20;;;;;;;15.26;69.88;102293.78;5054616;27;102625;-45
2021/11/07 01:23:45;;;;;;;13.43;10.85;;;;;;;15.27;69.65;102300.91;5053224;27;103636;-50
2021/11/07 01:26:20;;;;;;;13.90;11.27;;;;;;;15.28;69.61;102313.53;5057797;27;102255;-45
2021/11/07 01:28:50;;;;;;;13.40;11.25;;;;;;;15.28;69.47;102308.03;5054419;27;102518;-47
2021/11/07 01:31:18;;;;;;;14.10;10.88;;;;;;;15.28;70.03;102302.56;5051184;27;104213;-46
2021/11/07 01:33:45;;;;;;;14.35;10.70;;;;;;;15.27;69.55;102306.41;5000971;28;103136;-45
2021/11/07 01:41:19;;;;;;;12.75;10.55;;;;;;;15.27;70.17;102301.72;5034942;27;102801;-46
2021/11/07 01:43:47;;;;;;;12.60;10.40;;;;;;;15.28;69.64;102302.56;5033555;27;106050;-46
2021/11/07 01:51:24;;;;;;;12.02;10.18;;;;;;;15.28;70.02;102308.84;5036042;27;102147;-49
2021/11/07 01:53:54;;;;;;;15.32;11.25;;;;;;;15.29;69.75;102301.44;5029634;27;103890;-45
2021/11/07 01:56:20;;;;;;;13.50;10.50;;;;;;;15.28;69.67;102292.41;5033485;27;102364;-46
2021/11/07 01:58:46;;;;;;;13.70;10.48;;;;;;;15.29;69.75;102293.22;5034444;27;102162;-47
2021/11/07 02:01:21;;;;;;;11.43;9.45;;;;;;;15.28;69.88;102288.84;5036408;27;102281;-48
2021/11/07 02:03:49;;;;;;;13.38;10.43;;;;;;;15.28;70.17;102294.31;5034881;28;103842;-46
2021/11/07 02:06:16;;;;;;;16.65;12.00;;;;;;;15.28;69.68;102297.06;5022237;27;102289;-45
2021/11/07 02:08:43;;;;;;;12.77;10.73;;;;;;;15.28;69.80;102286.09;5034120;27;102361;-45
2021/11/07 02:11:10;;;;;;;13.05;10.23;;;;;;;15.28;69.75;102286.09;5037213;27;102639;-45
2021/11/07 02:13:39;;;;;;;15.65;11.27;;;;;;;15.27;69.75;102287.19;5033948;27;103981;-46
2021/11/07 02:16:07;;;;;;;15.02;12.00;;;;;;;15.27;70.28;102285.28;5037246;27;102273;-47
2021/11/07 02:18:36;;;;;;;12.43;10.23;;;;;;;15.29;69.88;102287.75;5017300;27;102224;-46
2021/11/07 02:21:05;;;;;;;;;;;;;;;15.28;70.01;102292.41;5034119;27;102267;-46
2021/11/07 02:23:32;;;;;;;14.20;10.98;;;;;;;15.28;70.13;102291.59;5036003;27;104091;-46
2021/11/07 02:26:05;;;;;;;13.38;9.73;;;;;;;15.28;70.11;102291.59;5035334;27;102095;-48
2021/11/07 02:28:35;;;;;;;13.20;10.45;;;;;;;15.28;70.22;102288.84;5020011;27;102287;-45
2021/11/07 02:31:02;;;;;;;;;;;;;;;15.29;70.17;102290.47;5032388;27;102624;-46
2021/11/07 02:33:29;;;;;;;12.32;10.20;;;;;;;15.28;69.65;102297.06;5037530;27;103918;-45
2021/11/07 02:35:56;;;;;;;13.30;10.48;;;;;;;15.28;69.91;102297.06;5054958;27;102170;-46
2021/11/07 02:38:24;;;;;;;14.30;10.48;;;;;;;15.28;69.65;102302.56;5056025;27;102173;-47
2021/11/07 02:40:50;;;;;;;13.98;10.27;;;;;;;15.27;69.98;102293.50;5053893;27;102937;-45
2021/11/07 02:43:17;;;;;;;10.10;8.85;;;;;;;15.27;69.82;102296.25;5053584;27;103859;-45
2021/11/07 02:45:44;;;;;;;12.38;10.15;;;;;;;15.28;70.16;102292.41;5053928;27;102362;-46
2021/11/07 02:48:10;;;;;;;13.60;9.77;;;;;;;15.28;69.65;102277.88;5051648;27;102415;-45
2021/11/07 02:50:37;;;;;;;13.40;10.27;;;;;;;15.28;70.24;102278.69;5054747;27;102183;-47
2021/11/07 02:53:03;;;;;;;12.00;9.60;;;;;;;15.28;70.10;102286.09;5047546;27;104154;-46
2021/11/07 02:55:31;;;;;;;12.75;9.52;;;;;;;15.28;70.02;102288.84;5044815;27;102199;-47
2021/11/07 02:57:59;;;;;;;14.63;9.73;;;;;;;15.28;69.70;102292.41;5042654;27;102164;-48
2021/11/07 03:00:29;;;;;;;13.20;10.10;;;;;;;15.28;70.17;102292.41;5051683;27;103423;-47
2021/11/07 03:02:56;;;;;;;11.48;9.48;;;;;;;15.28;70.01;102294.31;5054390;27;103908;-45
2021/11/07 03:05:23;;;;;;;10.52;8.68;;;;;;;15.28;69.67;102297.06;5055611;27;102536;-49
2021/11/07 03:07:51;;;;;;;12.45;9.55;;;;;;;15.27;69.95;102300.91;5053996;27;102040;-46
2021/11/07 03:10:18;;;;;;;12.68;9.77;;;;;;;15.27;69.69;102296.25;5053829;27;102103;-45
2021/11/07 03:13:00;;;;;;;13.00;10.07;;;;;;;15.28;70.02;102297.06;5039595;27;103549;-46
2021/11/07 03:15:28;;;;;;;11.82;9.48;;;;;;;15.27;69.76;102301.72;5054507;27;102195;-46
2021/11/07 03:17:55;;;;;;;10.75;9.10;;;;;;;15.28;69.67;102291.59;5055020;27;101920;-46
2021/11/07 03:20:21;;;;;;;12.43;9.60;;;;;;;15.27;70.16;102296.25;5055968;27;102438;-46
2021/11/07 03:22:50;;;;;;;11.48;8.73;;;;;;;15.27;70.12;102285.28;5052239;27;103894;-45
2021/11/07 03:25:16;;;;;;;12.98;9.75;;;;;;;15.29;69.81;102287.75;5056237;27;102472;-48
2021/11/07 03:27:44;;;;;;;11.13;9.70;;;;;;;15.28;70.19;102286.09;5036469;27;102572;-48
2021/11/07 03:30:26;;;;;;;10.85;8.85;;;;;;;15.29;69.68;102282.25;5056198;27;102324;-49
2021/11/07 03:32:58;;;;;;;11.25;8.32;;;;;;;15.28;70.17;102286.09;5043605;27;108160;-46
2021/11/07 03:35:29;;;;;;;11.43;8.95;;;;;;;15.28;70.28;102275.94;5051091;27;102102;-49
2021/11/07 03:37:56;;;;;;;12.20;9.52;;;;;;;15.29;70.13;102282.25;5053286;27;102256;-46
2021/11/07 03:40:24;;;;;;;11.27;8.98;;;;;;;15.29;70.02;102276.78;5055556;27;102138;-46
2021/11/07 03:42:51;;;;;;;9.30;8.32;;;;;;;15.28;70.10;102275.13;5039279;27;103719;-46
2021/11/07 03:45:21;;;;;;;10.50;8.55;;;;;;;15.27;69.83;102271.56;5054153;27;102051;-48
2021/11/07 03:47:48;;;;;;;12.35;9.13;;;;;;;15.27;69.77;102274.31;5044091;27;102435;-46
2021/11/07 03:50:17;;;;;;;10.10;8.88;;;;;;;15.28;69.78;102269.63;5044129;27;102540;-48
2021/11/07 03:52:43;;;;;;;10.15;8.75;;;;;;;15.28;69.81;102275.13;5039493;27;104123;-48
2021/11/07 03:55:09;;;;;;;10.25;8.40;;;;;;;15.27;70.14;102279.78;5044037;27;102473;-47
2021/11/07 03:57:36;;;;;;;11.18;8.52;;;;;;;15.28;69.73;102275.13;5054172;27;102076;-46
2021/11/07 04:00:06;;;;;;;11.20;9.07;;;;;;;15.27;70.11;102274.31;5053830;27;102452;-47
2021/11/07 04:02:35;;;;;;;9.70;8.32;;;;;;;15.27;70.22;102268.81;5052450;27;104044;-46
2021/11/07 04:05:03;;;;;;;10.27;8.18;;;;;;;15.27;69.73;102273.47;5052680;27;102357;-45
2021/11/07 04:07:38;;;;;;;10.90;8.70;;;;;;;15.27;70.14;102268.81;5051836;27;102097;-47
2021/11/07 04:10:07;;;;;;;8.80;7.90;;;;;;;15.28;70.19;102269.63;5044503;27;102323;-48
2021/11/07 04:12:33;;;;;;;11.23;9.07;;;;;;;15.27;70.11;102262.50;5049285;27;104086;-48
2021/11/07 04:15:00;;;;;;;9.30;7.85;;;;;;;15.28;70.19;102280.63;5042875;27;102114;-46
2021/11/07 04:17:27;;;;;;;8.88;7.97;;;;;;;15.27;70.08;102273.47;5041609;27;102189;-46
2021/11/07 04:19:55;;;;;;;10.10;8.60;;;;;;;15.27;69.77;102282.53;5053836;27;102697;-48
2021/11/07 04:22:22;;;;;;;8.83;7.90;;;;;;;15.27;69.91;102284.44;5050944;27;103920;-46
2021/11/07 04:24:48;;;;;;;10.30;7.88;;;;;;;15.28;69.90;102275.13;5042941;27;102209;-46
2021/11/07 04:27:14;;;;;;;10.10;8.43;;;;;;;15.27;70.30;102268.81;5053944;27;102227;-46
2021/11/07 04:29:41;;;;;;;8.75;7.72;;;;;;;15.26;69.74;102263.63;5056335;27;102391;-47
2021/11/07 04:32:08;;;;;;;9.63;8.18;;;;;;;15.26;69.81;102253.47;5048567;27;103875;-47
2021/11/07 04:34:35;;;;;;;9.70;8.07;;;;;;;15.27;70.28;102251.53;5058243;27;102715;-46
2021/11/07 04:37:03;;;;;;;8.60;7.30;;;;;;;15.26;69.85;102252.63;5054845;27;102257;-48
2021/11/07 04:39:30;;;;;;;9.38;8.32;;;;;;;15.27;69.93;102257.03;5040931;27;102196;-45
2021/11/07 04:41:57;;;;;;;8.65;7.72;;;;;;;15.26;69.95;102255.38;5050222;27;102687;-46
2021/11/07 04:44:23;;;;;;;9.75;8.50;;;;;;;15.27;70.07;102257.03;5058623;27;102365;-46
2021/11/07 04:46:51;;;;;;;9.38;8.10;;;;;;;15.26;69.75;102263.63;5055187;27;102566;-47
2021/11/07 04:49:17;;;;;;;9.77;8.02;;;;;;;15.26;69.88;102249.91;5052502;27;102162;-46
2021/11/07 04:51:44;;;;;;;9.10;7.70;;;;;;;15.27;70.18;102246.06;5044267;27;104016;-45
2021/11/07 04:54:13;;;;;;;10.68;8.35;;;;;;;15.27;70.15;102251.53;5054973;27;102196;-46
2021/11/07 04:56:39;;;;;;;10.48;8.30;;;;;;;15.27;70.26;102268.00;5055793;27;104427;-46
2021/11/07 04:59:06;;;;;;;10.05;8.48;;;;;;;15.26;69.90;102266.34;5051626;27;102310;-46
2021/11/07 05:01:32;;;;;;;8.68;7.72;;;;;;;15.26;69.93;102280.06;5054424;27;103926;-48
2021/11/07 05:03:59;;;;;;;8.20;7.35;;;;;;;15.26;69.85;102271.84;5051261;27;102333;-47
2021/11/07 05:06:26;;;;;;;9.45;8.00;;;;;;;15.26;69.81;102266.34;5054754;27;102118;-46
2021/11/07 05:08:52;;;;;;;8.98;8.00;;;;;;;15.25;70.20;102270.97;5026252;27;102813;-47
2021/11/07 05:11:20;;;;;;;8.60;7.43;;;;;;;15.25;70.16;102264.69;5055145;27;103893;-46
2021/11/07 05:13:47;;;;;;;9.53;7.83;;;;;;;15.26;70.27;102260.88;5056616;27;102345;-46
2021/11/07 05:16:14;;;;;;;9.63;8.40;;;;;;;15.26;70.31;102269.09;5047749;27;102612;-48
2021/11/07 05:18:40;;;;;;;8.45;7.45;;;;;;;15.26;69.90;102266.34;5059152;27;102196;-47
2021/11/07 05:21:07;;;;;;;8.55;7.32;;;;;;;15.25;70.35;102259.19;5050196;27;103927;-47
2021/11/07 05:23:33;;;;;;;9.77;7.75;;;;;;;15.25;70.24;102267.41;5051906;27;102196;-46
2021/11/07 05:26:00;;;;;;;8.68;7.78;;;;;;;15.25;70.15;102276.47;5057618;27;102371;-46
2021/11/07 05:28:28;;;;;;;9.30;7.72;;;;;;;15.26;69.98;102282.81;5053019;27;102433;-45
2021/11/07 05:30:54;;;;;;;9.57;8.00;;;;;;;15.25;70.27;102275.66;5057575;27;104012;-46
2021/11/07 05:33:22;;;;;;;9.15;7.80;;;;;;;15.26;69.80;102261.69;5044700;27;102936;-46
2021/11/07 05:35:48;;;;;;;9.07;7.68;;;;;;;15.26;69.87;102271.84;5047605;27;102486;-46
2021/11/07 05:38:15;;;;;;;8.55;7.22;;;;;;;15.25;70.23;102276.47;5053025;27;102463;-48
2021/11/07 05:40:41;;;;;;;9.30;7.85;;;;;;;15.25;70.00;102294.84;5055940;27;103235;-45
2021/11/07 05:43:08;;;;;;;8.10;7.25;;;;;;;15.25;69.95;102295.66;5055050;27;102213;-47
2021/11/07 05:45:35;;;;;;;8.95;7.68;;;;;;;15.26;69.95;102302.00;5056498;27;102493;-47
2021/11/07 05:48:04;;;;;;;8.05;6.70;;;;;;;15.25;70.00;102298.41;5052697;27;102406;-48
2021/11/07 05:50:30;;;;;;;8.70;7.20;;;;;;;15.25;69.94;102298.41;5052790;27;103821;-47
2021/11/07 05:52:56;;;;;;;10.57;7.95;;;;;;;15.25;70.07;102287.44;5053470;27;102206;-47
2021/11/07 05:55:23;;;;;;;9.35;7.57;;;;;;;15.26;70.17;102294.59;5056751;27;102284;-48
2021/11/07 05:57:50;;;;;;;10.50;7.80;;;;;;;15.27;70.22;102292.69;5057351;27;102304;-45
2021/11/07 06:00:18;;;;;;;9.05;7.88;;;;;;;15.26;69.96;102274.59;5052314;27;103875;-47
2021/11/07 06:02:48;;;;;;;8.40;7.50;;;;;;;15.25;69.94;102265.50;5055962;27;102604;-46
2021/11/07 06:05:14;;;;;;;;;;;;;;;15.26;69.86;102260.88;5055636;27;102122;-46
2021/11/07 06:07:41;;;;;;;8.95;7.60;;;;;;;15.26;70.27;102258.13;5054557;27;102193;-48
2021/11/07 06:10:09;;;;;;;9.80;7.88;;;;;;;15.26;70.00;102249.91;5055536;27;103926;-47
2021/11/07 06:12:35;;;;;;;8.45;7.55;;;;;;;15.26;70.21;102250.72;5056146;27;102489;-46
2021/11/07 06:15:04;;;;;;;9.70;7.72;;;;;;;15.26;69.95;102244.41;5053163;27;102227;-47
2021/11/07 06:17:31;;;;;;;8.17;7.30;;;;;;;15.26;69.90;102255.38;5046346;27;102137;-46
2021/11/07 06:19:59;;;;;;;8.73;7.55;;;;;;;15.26;70.03;102244.41;5049787;27;104103;-47
2021/11/07 06:22:25;;;;;;;9.18;7.88;;;;;;;15.26;70.20;102252.63;5042749;27;102395;-46
2021/11/07 06:24:52;;;;;;;10.52;7.45;;;;;;;15.26;69.81;102258.13;5049527;27;103121;-46
2021/11/07 06:27:19;;;;;;;8.57;7.50;;;;;;;15.26;69.89;102258.94;5055213;27;102183;-47
2021/11/07 06:29:45;;;;;;;8.85;7.57;;;;;;;15.26;70.16;102255.38;5054567;27;103734;-46
2021/11/07 06:32:12;;;;;;;9.88;7.32;;;;;;;15.26;69.78;102252.63;5054570;27;101976;-45
2021/11/07 06:34:40;;;;;;;9.25;8.18;;;;;;;15.26;70.07;102250.72;5051196;27;102215;-48
2021/11/07 06:37:10;;;;;;;8.77;7.88;;;;;;;15.26;70.09;102244.41;5054778;27;102765;-45
2021/11/07 06:39:37;;;;;;;9.05;7.72;;;;;;;15.25;70.39;102238.06;5033308;27;103894;-46
2021/11/07 06:42:04;;;;;;;9.10;8.02;;;;;;;15.27;69.78;102226.84;5031307;27;104071;-46
2021/11/07 06:44:31;;;;;;;8.82;7.45;;;;;;;15.26;70.22;102233.44;5041553;27;102752;-46
2021/11/07 06:46:57;;;;;;;10.38;8.60;;;;;;;15.26;69.84;102242.50;5047591;27;102524;-47
2021/11/07 06:49:25;;;;;;;10.13;8.10;;;;;;;15.28;70.34;102247.69;5040194;27;103985;-45
2021/11/07 06:51:51;;;;;;;8.70;7.50;;;;;;;15.26;70.24;102238.94;5035645;27;102922;-46
2021/11/07 06:54:21;;;;;;;9.95;7.82;;;;;;;15.27;70.48;102237.81;5056253;27;102329;-45
2021/11/07 06:56:48;;;;;;;10.38;8.32;;;;;;;15.27;69.99;102235.09;5034314;27;102695;-45
2021/11/07 06:59:15;;;;;;;10.07;8.52;;;;;;;15.27;70.22;102235.09;5031392;27;104276;-47
2021/11/07 07:01:41;;;;;;;10.18;8.07;;;;;;;15.28;69.84;102242.22;5033934;27;102601;-46
2021/11/07 07:04:08;;;;;;;10.45;8.48;;;;;;;15.28;70.05;102247.69;5033043;27;103470;-45
2021/11/07 07:06:36;;;;;;;11.07;8.45;;;;;;;15.28;70.24;102242.22;5033073;27;102552;-45
2021/11/07 07:09:09;;;;;;;9.85;7.72;;;;;;;15.28;70.29;102236.72;5046386;27;104349;-47
2021/11/07 07:11:46;;;;;;;10.27;8.20;;;;;;;15.28;70.27;102237.53;5043720;27;102414;-46
2021/11/07 07:14:18;;;;;;;10.18;8.60;;;;;;;15.28;69.84;102234.81;5046892;27;102456;-47
2021/11/07 07:32:38;;;;;;;10.35;9.35;;;;;;;15.30;69.87;102231.81;5048438;27;102227;-45
2021/11/07 07:35:06;;;;;;;12.27;10.23;;;;;;;15.30;70.30;102218.91;5043057;27;102186;-45
2021/11/07 07:37:33;;;;;;;13.25;11.52;;;;;;;15.31;70.00;102215.06;5048498;27;102934;-46
2021/11/07 07:39:59;;;;;;;13.55;10.95;;;;;;;15.31;69.94;102206.84;5045844;27;102945;-47
2021/11/07 07:42:30;;;;;;;10.93;9.80;;;;;;;15.32;70.21;102207.66;5053841;27;102174;-45
2021/11/07 07:44:56;;;;;;;12.45;9.68;;;;;;;15.31;70.30;102204.09;5047856;27;104237;-46
2021/11/07 07:47:24;;;;;;;9.88;8.60;;;;;;;15.32;69.81;102193.97;5049495;27;102639;-46
2021/11/07 07:49:51;;;;;;;9.73;8.73;;;;;;;15.33;70.01;102192.88;5052579;27;103946;-46
2021/11/07 07:52:24;;;;;;;10.30;9.15;;;;;;;15.32;70.30;102193.97;5048621;27;102435;-50
2021/11/07 07:54:51;;;;;;;12.05;9.85;;;;;;;15.33;70.36;102184.66;5040641;27;109454;-46
2021/11/07 07:57:18;;;;;;;10.07;9.02;;;;;;;15.32;70.20;102183.81;5047803;27;102207;-46
2021/11/07 07:59:46;;;;;;;10.38;9.13;;;;;;;15.32;70.13;102169.25;5046206;27;103519;-47
2021/11/07 08:02:12;;;;;;;10.57;9.05;;;;;;;15.33;70.21;102173.69;5048335;27;102135;-46
2021/11/07 08:04:39;;;;;;;12.05;9.70;;;;;;;15.33;70.43;102181.91;5052944;27;102348;-48
2021/11/07 08:07:05;;;;;;;10.02;9.02;;;;;;;15.32;69.95;102181.06;5047172;27;102674;-48
2021/11/07 08:09:32;;;;;;;14.07;9.95;;;;;;;15.33;70.26;102190.13;5050035;27;103932;-48
2021/11/07 08:11:58;;;;;;;12.00;10.25;;;;;;;15.32;70.35;102182.97;5047334;27;102423;-47
2021/11/07 08:14:25;;;;;;;10.95;9.85;;;;;;;15.33;69.81;102184.66;5049012;27;102065;-45
2021/11/07 08:16:54;;;;;;;10.80;9.48;;;;;;;15.34;70.24;102175.31;5053321;27;102424;-48
2021/11/07 08:19:20;;;;;;;13.80;10.38;;;;;;;15.32;70.00;102174.75;5056328;27;104293;-45
2021/11/07 08:21:47;;;;;;;11.60;9.40;;;;;;;15.32;70.04;102161.03;5043550;27;102219;-46
2021/11/07 08:24:17;;;;;;;11.43;10.18;;;;;;;15.33;69.90;102168.19;5053214;27;102671;-45
2021/11/07 08:26:43;;;;;;;13.55;10.63;;;;;;;15.33;70.26;102168.19;5048415;27;102157;-46
2021/11/07 08:29:13;;;;;;;14.80;11.02;;;;;;;15.33;70.08;102158.03;5056459;27;103912;-46
2021/11/07 08:31:41;;;;;;;15.68;10.82;;;;;;;15.32;69.99;102161.84;5051813;27;103708;-45
2021/11/07 08:34:09;;;;;;;14.15;11.13;;;;;;;15.33;70.03;102157.22;5057030;27;102071;-47
2021/11/07 08:39:07;;;;;;;14.98;10.18;;;;;;;15.33;70.26;102170.94;5043422;27;103997;-47
2021/11/07 08:41:34;;;;;;;12.48;11.07;;;;;;;15.33;70.31;102165.47;5054418;27;102088;-46
2021/11/07 09:06:21;;;;;;;13.23;10.60;;;;;;;15.35;70.22;102127.59;5055426;27;102290;-46
2021/11/07 09:08:22;;;;;;;12.82;10.55;;;;;;;15.35;70.25;102122.09;5032831;27;102219;-46
2021/11/07 09:10:53;;;;;;;12.93;10.27;;;;;;;15.36;70.42;102123.75;5052442;27;103932;-45
2021/11/07 09:13:20;;;;;;;12.03;10.40;;;;;;;15.35;70.41;102111.13;5046393;27;102410;-46
2021/11/07 09:16:02;;;;;;;14.10;10.63;;;;;;;15.35;70.27;102097.41;5049843;27;102790;-46
2021/11/07 09:18:28;;;;;;;13.88;11.13;;;;;;;15.35;70.29;102090.00;5052719;27;102635;-47
2021/11/07 09:21:07;;;;;;;15.70;10.80;;;;;;;15.36;69.99;102088.09;5055102;27;104372;-45
2021/11/07 09:36:31;;;;;;;12.77;9.93;;;;;;;15.37;70.06;102068.63;5040743;27;102932;-46
2021/11/07 09:41:53;;;;;;;14.60;10.25;;;;;;;15.37;69.91;102065.06;5048832;27;104820;-47
2021/11/07 09:44:18;;;;;;;11.18;9.98;;;;;;;15.38;70.08;102061.22;5054323;27;102297;-45
2021/11/07 09:47:08;;;;;;;14.07;11.18;;;;;;;15.35;70.40;102051.59;5056255;27;102146;-48
2021/11/07 09:49:44;;;;;;;12.35;10.90;;;;;;;15.37;70.27;102037.63;5041744;27;102171;-47
2021/11/07 09:52:16;;;;;;;15.30;11.38;;;;;;;15.37;70.31;102048.63;5055069;27;107617;-46
2021/11/07 09:54:45;;;;;;;14.38;11.25;;;;;;;15.37;69.96;102048.63;5057522;27;102161;-47
2021/11/07 09:57:16;;;;;;;13.68;11.15;;;;;;;15.35;70.45;102024.19;5047387;27;102182;-46
2021/11/07 09:59:42;;;;;;;13.27;10.48;;;;;;;15.35;70.04;102028.84;5050695;27;102060;-45
2021/11/07 10:02:09;;;;;;;13.70;10.35;;;;;;;15.36;70.54;102019.50;5055740;27;104006;-47
2021/11/07 10:04:38;;;;;;;11.73;10.30;;;;;;;15.36;70.05;102014.03;5056824;27;101902;-46
2021/11/07 10:07:19;;;;;;;12.55;10.43;;;;;;;15.37;70.02;102004.72;5055285;27;102565;-46
2021/11/07 10:09:50;;;;;;;11.43;10.20;;;;;;;15.37;70.20;101999.25;5055675;27;102058;-45
2021/11/07 10:12:29;;;;;;;12.27;10.15;;;;;;;15.36;70.35;101989.34;5040869;27;103888;-45
2021/11/07 10:15:03;;;;;;;13.15;10.93;;;;;;;15.36;70.04;101992.09;5052105;27;102713;-49
2021/11/07 10:17:39;;;;;;;12.70;10.32;;;;;;;15.35;70.20;101990.44;5049244;27;102181;-49
2021/11/07 10:20:24;;;;;;;14.00;11.30;;;;;;;15.36;70.40;101981.09;5052489;27;102688;-46
2021/11/07 10:22:57;;;;;;;12.45;10.90;;;;;;;15.35;70.47;101980.28;5042408;27;104252;-46
2021/11/07 10:25:30;;;;;;;14.10;11.48;;;;;;;15.37;70.06;101982.78;5048183;27;101944;-46
2021/11/07 10:27:58;;;;;;;13.75;10.80;;;;;;;15.35;69.98;101979.47;5046989;27;102182;-48
2021/11/07 10:30:26;;;;;;;13.23;11.70;;;;;;;15.37;70.06;101993.75;5047310;27;102188;-50
2021/11/07 10:44:21;;;;;;;13.43;11.48;;;;;;;15.35;70.12;101943.81;5050282;27;103908;-46
2021/11/07 10:52:22;;;;;;;12.75;10.70;;;;;;;15.35;70.34;101946.56;5056127;27;102244;-45
2021/11/07 10:54:50;;;;;;;12.73;11.20;;;;;;;15.35;70.35;101935.59;5053497;27;103987;-45
2021/11/07 10:57:20;;;;;;;13.75;11.25;;;;;;;15.35;70.37;101941.06;5050229;27;102355;-49
2021/11/07 11:00:07;;;;;;;14.63;10.98;;;;;;;15.34;70.43;101939.44;5056565;27;102111;-47
2021/11/07 11:02:35;;;;;;;12.65;11.00;;;;;;;15.35;70.39;101930.09;5051079;27;102210;-45
2021/11/07 11:05:04;;;;;;;14.60;10.68;;;;;;;15.35;70.47;101921.88;5050330;27;103974;-46
2021/11/07 11:07:30;;;;;;;12.80;11.27;;;;;;;15.34;70.18;101909.25;5048738;27;102293;-45
2021/11/07 11:10:22;;;;;;;13.82;11.30;;;;;;;15.34;70.24;101917.50;5056096;27;102283;-45
2021/11/07 11:13:21;;;;;;;18.27;11.68;;;;;;;15.35;69.87;101908.16;5052124;27;102599;-46
2021/11/07 11:16:18;;;;;;;14.02;11.02;;;;;;;15.34;70.35;101904.59;4996336;27;104177;-45
2021/11/07 11:21:47;;;;;;;12.98;11.52;;;;;;;15.34;70.13;101895.56;5051188;27;102276;-45
2021/11/07 11:32:13;;;;;;;13.15;11.55;;;;;;;15.33;70.26;101874.72;5048236;27;102237;-45
2021/11/07 11:34:44;;;;;;;13.18;11.77;;;;;;;15.33;70.20;101875.53;5045838;27;102133;-49
2021/11/07 11:45:10;;;;;;;12.93;11.35;;;;;;;15.35;70.22;101858.78;5051488;27;102457;-45
2021/11/07 11:56:21;;;;;;;14.27;11.95;;;;;;;15.35;70.34;101828.63;5055505;27;102538;-46
2021/11/07 11:58:56;;;;;;;13.27;11.00;;;;;;;15.35;70.24;101831.34;5053372;27;104032;-45
2021/11/07 12:01:29;;;;;;;12.82;11.52;;;;;;;15.35;70.07;101847.81;5053770;27;102347;-45
2021/11/07 12:04:10;;;;;;;13.90;11.52;;;;;;;15.35;70.12;101847.81;5054286;27;102027;-48
2021/11/07 12:09:44;;;;;;;15.35;12.20;;;;;;;15.34;70.07;101838.78;5052484;27;104088;-46
2021/11/07 12:12:25;;;;;;;15.63;12.00;;;;;;;15.35;70.26;101837.66;5054436;27;102584;-47
2021/11/07 12:17:47;;;;;;;15.93;12.38;;;;;;;15.34;70.11;101794.06;5048942;27;102123;-48
2021/11/07 12:20:25;;;;;;;16.10;11.95;;;;;;;15.35;70.23;101792.97;5047195;27;104134;-46
2021/11/07 12:23:18;;;;;;;14.40;11.75;;;;;;;15.34;69.92;101808.59;5053795;27;102416;-46
2021/11/07 12:25:46;;;;;;;14.30;11.63;;;;;;;15.34;70.02;101810.53;5052543;27;102213;-47
2021/11/07 12:28:13;;;;;;;15.73;12.38;;;;;;;15.35;70.18;101809.41;5053379;27;102557;-46
2021/11/07 12:30:42;;;;;;;14.23;12.27;;;;;;;15.35;70.48;101798.44;5047550;27;103892;-47
2021/11/07 12:33:11;;;;;;;15.32;12.02;;;;;;;15.34;70.37;101778.44;5053677;27;102257;-47
2021/11/07 12:35:42;;;;;;;15.60;11.63;;;;;;;15.34;70.04;101772.13;5052795;27;102912;-46
2021/11/07 12:41:20;;;;;;;13.57;11.88;;;;;;;15.34;69.96;101766.63;5050897;27;104170;-46
2021/11/07 12:43:49;;;;;;;15.10;12.50;;;;;;;15.34;69.96;101769.38;5053329;27;102132;-45
2021/11/07 12:47:27;;;;;;;13.10;11.70;;;;;;;15.34;70.36;101769.38;5054208;27;102202;-45
2021/11/07 12:49:23;;;;;;;13.27;11.25;;;;;;;15.34;70.41;101769.38;5034651;27;102231;-46
2021/11/07 12:51:52;;;;;;;12.63;11.27;;;;;;;15.34;70.03;101780.34;5045832;27;103921;-46
2021/11/07 12:54:20;;;;;;;13.68;11.73;;;;;;;15.35;69.90;101781.97;5050500;27;102070;-46
2021/11/07 12:56:56;;;;;;;13.80;11.63;;;;;;;15.34;70.28;101785.84;5047407;27;102266;-46
2021/11/07 12:59:28;;;;;;;14.65;11.55;;;;;;;15.34;70.24;101794.06;5047360;27;102519;-45
2021/11/07 13:02:05;;;;;;;15.13;11.27;;;;;;;15.35;70.35;101787.47;5044273;27;104164;-46
2021/11/07 13:04:37;;;;;;;12.75;11.23;;;;;;;15.35;70.30;101771.00;5052084;27;102438;-45
2021/11/07 13:07:04;;;;;;;12.93;11.30;;;;;;;15.34;70.19;101753.75;5057139;27;102274;-45
2021/11/07 13:09:44;;;;;;;13.13;10.90;;;;;;;15.34;70.16;101739.22;5057416;27;102239;-46
2021/11/07 13:12:20;;;;;;;12.60;11.27;;;;;;;15.34;69.65;101736.47;5051587;27;103891;-48
2021/11/07 13:15:09;;;;;;;13.40;11.40;;;;;;;15.35;69.83;101754.56;5055281;27;102528;-48
2021/11/07 13:20:55;;;;;;;14.07;12.20;;;;;;;15.34;69.81;101720.00;5008746;27;102395;-45
2021/11/07 13:31:42;;;;;;;15.23;12.30;;;;;;;15.34;70.42;101698.06;5047961;27;104047;-45
2021/11/07 13:34:13;;;;;;;13.43;11.82;;;;;;;15.34;70.15;101692.59;5043541;27;104169;-45
2021/11/07 13:36:42;;;;;;;13.65;11.88;;;;;;;15.35;69.96;101699.69;5041957;27;102519;-47
2021/11/07 13:39:10;;;;;;;14.13;12.13;;;;;;;15.34;70.23;101684.34;5046392;27;102116;-46
2021/11/07 13:41:38;;;;;;;14.80;11.90;;;;;;;15.34;70.06;101662.41;5057104;27;102236;-50
2021/11/07 13:44:14;;;;;;;17.33;13.13;;;;;;;15.34;70.19;101641.28;5032239;27;103859;-48
2021/11/07 13:46:49;;;;;;;14.65;12.13;;;;;;;15.34;70.06;101637.72;5054273;27;102477;-46
2021/11/07 13:49:17;;;;;;;14.13;11.57;;;;;;;15.34;69.97;101656.94;5043753;27;102028;-47
2021/11/07 13:51:51;;;;;;;15.20;11.85;;;;;;;15.33;70.38;101641.59;5041841;27;102243;-45
2021/11/07 13:54:18;;;;;;;16.35;12.15;;;;;;;15.34;69.96;101643.22;5054119;27;103714;-47
2021/11/07 13:56:45;;;;;;;13.35;11.95;;;;;;;15.34;69.88;101638.56;5054007;27;102345;-49